sensor_id;sensor_type;location;lat;lon;timestamp;P1;durP1;ratioP1;P2;durP2;ratioP2
55330;SDS011;58851;42.984;20.336;2022-11-20T00:00:45;68.03;;;51.63;;
55330;SDS011;58851;42.984;20.336;2022-11-20T00:03:10;64.93;;;47.72;;
55330;SDS011;58851;42.984;20.336;2022-11-20T00:05:37;54.50;;;41.70;;
55330;SDS011;58851;42.984;20.336;2022-11-20T00:08:03;61.22;;;43.28;;
55330;SDS011;58851;42.984;20.336;2022-11-20T00:10:29;58.40;;;44.78;;
55330;SDS011;58851;42.984;20.336;2022-11-20T00:12:57;62.53;;;47.40;;
55330;SDS011;58851;42.984;20.336;2022-11-20T00:15:23;46.17;;;34.00;;
55330;SDS011;58851;42.984;20.336;2022-11-20T00:17:49;46.72;;;33.92;;
55330;SDS011;58851;42.984;20.336;2022-11-20T00:20:15;40.50;;;33.45;;
55330;SDS011;58851;42.984;20.336;2022-11-20T00:22:41;24.85;;;18.17;;
55330;SDS011;58851;42.984;20.336;2022-11-20T00:25:07;19.63;;;14.52;;
55330;SDS011;58851;42.984;20.336;2022-11-20T00:27:33;22.08;;;15.63;;
55330;SDS011;58851;42.984;20.336;2022-11-20T00:29:59;22.20;;;16.35;;
55330;SDS011;58851;42.984;20.336;2022-11-20T00:32:25;17.50;;;12.63;;
55330;SDS011;58851;42.984;20.336;2022-11-20T00:34:51;20.25;;;12.85;;
55330;SDS011;58851;42.984;20.336;2022-11-20T00:37:16;13.25;;;10.43;;
55330;SDS011;58851;42.984;20.336;2022-11-20T00:39:42;21.67;;;16.30;;
55330;SDS011;58851;42.984;20.336;2022-11-20T00:42:08;27.92;;;19.85;;
55330;SDS011;58851;42.984;20.336;2022-11-20T00:44:34;24.50;;;17.65;;
55330;SDS011;58851;42.984;20.336;2022-11-20T00:47:00;22.10;;;15.60;;
55330;SDS011;58851;42.984;20.336;2022-11-20T00:49:25;22.10;;;16.83;;
55330;SDS011;58851;42.984;20.336;2022-11-20T00:51:51;18.90;;;15.18;;
55330;SDS011;58851;42.984;20.336;2022-11-20T00:54:17;17.00;;;13.38;;
55330;SDS011;58851;42.984;20.336;2022-11-20T00:56:43;15.52;;;11.75;;
55330;SDS011;58851;42.984;20.336;2022-11-20T00:59:09;23.23;;;15.75;;
55330;SDS011;58851;42.984;20.336;2022-11-20T01:01:36;26.88;;;15.40;;
55330;SDS011;58851;42.984;20.336;2022-11-20T01:04:03;17.40;;;11.77;;
55330;SDS011;58851;42.984;20.336;2022-11-20T01:06:33;21.60;;;13.18;;
55330;SDS011;58851;42.984;20.336;2022-11-20T01:09:05;669.53;;;443.80;;
55330;SDS011;58851;42.984;20.336;2022-11-20T01:11:34;90.18;;;52.33;;
55330;SDS011;58851;42.984;20.336;2022-11-20T01:14:04;33.58;;;20.92;;
55330;SDS011;58851;42.984;20.336;2022-11-20T01:16:33;23.42;;;14.02;;
55330;SDS011;58851;42.984;20.336;2022-11-20T01:19:00;24.60;;;17.20;;
55330;SDS011;58851;42.984;20.336;2022-11-20T01:21:29;14.95;;;8.65;;
55330;SDS011;58851;42.984;20.336;2022-11-20T01:23:57;11.85;;;9.00;;
55330;SDS011;58851;42.984;20.336;2022-11-20T01:26:26;17.83;;;11.82;;
55330;SDS011;58851;42.984;20.336;2022-11-20T01:28:54;19.00;;;12.75;;
55330;SDS011;58851;42.984;20.336;2022-11-20T01:31:25;20.45;;;14.20;;
55330;SDS011;58851;42.984;20.336;2022-11-20T01:33:54;21.85;;;17.02;;
55330;SDS011;58851;42.984;20.336;2022-11-20T01:36:22;21.85;;;15.98;;
55330;SDS011;58851;42.984;20.336;2022-11-20T01:38:56;28.00;;;18.42;;
55330;SDS011;58851;42.984;20.336;2022-11-20T01:41:24;41.45;;;29.08;;
55330;SDS011;58851;42.984;20.336;2022-11-20T01:44:10;47.53;;;31.95;;
55330;SDS011;58851;42.984;20.336;2022-11-20T01:46:40;55.80;;;36.88;;
55330;SDS011;58851;42.984;20.336;2022-11-20T01:51:49;39.60;;;26.70;;
55330;SDS011;58851;42.984;20.336;2022-11-20T01:54:32;41.25;;;30.98;;
55330;SDS011;58851;42.984;20.336;2022-11-20T01:57:03;29.02;;;21.77;;
55330;SDS011;58851;42.984;20.336;2022-11-20T01:59:31;22.00;;;15.85;;
55330;SDS011;58851;42.984;20.336;2022-11-20T02:01:58;13.35;;;8.82;;
55330;SDS011;58851;42.984;20.336;2022-11-20T02:04:24;14.27;;;9.15;;
55330;SDS011;58851;42.984;20.336;2022-11-20T02:06:56;41.15;;;20.30;;
55330;SDS011;58851;42.984;20.336;2022-11-20T02:09:25;25.90;;;15.90;;
55330;SDS011;58851;42.984;20.336;2022-11-20T02:11:52;29.38;;;15.68;;
55330;SDS011;58851;42.984;20.336;2022-11-20T02:14:18;17.13;;;10.00;;
55330;SDS011;58851;42.984;20.336;2022-11-20T02:16:45;14.82;;;7.80;;
55330;SDS011;58851;42.984;20.336;2022-11-20T02:19:16;15.13;;;10.35;;
55330;SDS011;58851;42.984;20.336;2022-11-20T02:24:38;20.05;;;13.55;;
55330;SDS011;58851;42.984;20.336;2022-11-20T02:29:39;13.70;;;10.38;;
55330;SDS011;58851;42.984;20.336;2022-11-20T02:32:31;13.27;;;9.15;;
55330;SDS011;58851;42.984;20.336;2022-11-20T02:35:08;12.02;;;8.57;;
55330;SDS011;58851;42.984;20.336;2022-11-20T02:37:59;11.95;;;8.63;;
55330;SDS011;58851;42.984;20.336;2022-11-20T02:40:27;16.50;;;12.75;;
55330;SDS011;58851;42.984;20.336;2022-11-20T02:42:56;18.17;;;10.40;;
55330;SDS011;58851;42.984;20.336;2022-11-20T02:45:22;20.77;;;12.20;;
55330;SDS011;58851;42.984;20.336;2022-11-20T02:47:49;10.05;;;6.53;;
55330;SDS011;58851;42.984;20.336;2022-11-20T02:50:15;7.88;;;4.45;;
55330;SDS011;58851;42.984;20.336;2022-11-20T02:52:41;5.88;;;3.95;;
55330;SDS011;58851;42.984;20.336;2022-11-20T02:55:07;7.93;;;5.28;;
55330;SDS011;58851;42.984;20.336;2022-11-20T02:57:33;9.90;;;6.95;;
55330;SDS011;58851;42.984;20.336;2022-11-20T02:59:59;8.82;;;6.72;;
55330;SDS011;58851;42.984;20.336;2022-11-20T03:02:25;7.40;;;5.32;;
55330;SDS011;58851;42.984;20.336;2022-11-20T03:04:51;9.57;;;6.40;;
55330;SDS011;58851;42.984;20.336;2022-11-20T03:07:17;10.70;;;7.35;;
55330;SDS011;58851;42.984;20.336;2022-11-20T03:09:42;12.60;;;8.23;;
55330;SDS011;58851;42.984;20.336;2022-11-20T03:12:08;14.55;;;9.75;;
55330;SDS011;58851;42.984;20.336;2022-11-20T03:14:34;15.52;;;10.98;;
55330;SDS011;58851;42.984;20.336;2022-11-20T03:17:00;24.75;;;19.25;;
55330;SDS011;58851;42.984;20.336;2022-11-20T03:19:26;25.92;;;18.90;;
55330;SDS011;58851;42.984;20.336;2022-11-20T03:21:51;26.30;;;19.67;;
55330;SDS011;58851;42.984;20.336;2022-11-20T03:24:17;56.35;;;50.53;;
55330;SDS011;58851;42.984;20.336;2022-11-20T03:26:43;21.13;;;15.60;;
55330;SDS011;58851;42.984;20.336;2022-11-20T03:29:09;18.90;;;15.48;;
55330;SDS011;58851;42.984;20.336;2022-11-20T03:31:36;25.75;;;21.52;;
55330;SDS011;58851;42.984;20.336;2022-11-20T03:34:05;17.92;;;14.32;;
55330;SDS011;58851;42.984;20.336;2022-11-20T03:36:31;19.98;;;16.70;;
55330;SDS011;58851;42.984;20.336;2022-11-20T03:38:57;20.42;;;16.05;;
55330;SDS011;58851;42.984;20.336;2022-11-20T03:41:25;26.10;;;20.10;;
55330;SDS011;58851;42.984;20.336;2022-11-20T03:43:53;23.60;;;18.55;;
55330;SDS011;58851;42.984;20.336;2022-11-20T03:46:21;25.63;;;18.70;;
55330;SDS011;58851;42.984;20.336;2022-11-20T03:48:47;23.10;;;16.95;;
55330;SDS011;58851;42.984;20.336;2022-11-20T03:53:40;9.73;;;5.72;;
55330;SDS011;58851;42.984;20.336;2022-11-20T03:56:08;11.07;;;7.47;;
55330;SDS011;58851;42.984;20.336;2022-11-20T03:58:35;15.80;;;11.00;;
55330;SDS011;58851;42.984;20.336;2022-11-20T04:01:12;33.00;;;24.40;;
55330;SDS011;58851;42.984;20.336;2022-11-20T04:03:39;16.35;;;12.93;;
55330;SDS011;58851;42.984;20.336;2022-11-20T04:06:07;14.93;;;10.50;;
55330;SDS011;58851;42.984;20.336;2022-11-20T04:08:34;18.30;;;14.05;;
55330;SDS011;58851;42.984;20.336;2022-11-20T04:13:35;22.00;;;13.35;;
55330;SDS011;58851;42.984;20.336;2022-11-20T04:16:01;18.42;;;11.80;;
55330;SDS011;58851;42.984;20.336;2022-11-20T04:18:27;19.45;;;12.25;;
55330;SDS011;58851;42.984;20.336;2022-11-20T04:20:53;20.67;;;14.77;;
55330;SDS011;58851;42.984;20.336;2022-11-20T04:23:21;22.60;;;14.50;;
55330;SDS011;58851;42.984;20.336;2022-11-20T04:25:46;16.77;;;12.85;;
55330;SDS011;58851;42.984;20.336;2022-11-20T04:28:12;20.35;;;12.90;;
55330;SDS011;58851;42.984;20.336;2022-11-20T04:30:38;21.63;;;13.45;;
55330;SDS011;58851;42.984;20.336;2022-11-20T04:33:04;21.35;;;13.95;;
55330;SDS011;58851;42.984;20.336;2022-11-20T04:35:29;19.15;;;12.07;;
55330;SDS011;58851;42.984;20.336;2022-11-20T04:37:58;18.20;;;12.10;;
55330;SDS011;58851;42.984;20.336;2022-11-20T04:40:24;18.40;;;13.82;;
55330;SDS011;58851;42.984;20.336;2022-11-20T04:42:50;20.85;;;14.93;;
55330;SDS011;58851;42.984;20.336;2022-11-20T04:45:15;15.07;;;10.38;;
55330;SDS011;58851;42.984;20.336;2022-11-20T04:47:41;12.15;;;7.97;;
55330;SDS011;58851;42.984;20.336;2022-11-20T04:50:07;13.02;;;7.55;;
55330;SDS011;58851;42.984;20.336;2022-11-20T04:52:33;8.25;;;5.88;;
55330;SDS011;58851;42.984;20.336;2022-11-20T04:54:59;10.98;;;6.97;;
55330;SDS011;58851;42.984;20.336;2022-11-20T04:57:25;7.05;;;4.40;;
55330;SDS011;58851;42.984;20.336;2022-11-20T04:59:51;8.80;;;4.25;;
55330;SDS011;58851;42.984;20.336;2022-11-20T05:02:16;7.55;;;5.65;;
55330;SDS011;58851;42.984;20.336;2022-11-20T05:04:42;8.15;;;5.50;;
55330;SDS011;58851;42.984;20.336;2022-11-20T05:07:08;17.95;;;8.30;;
55330;SDS011;58851;42.984;20.336;2022-11-20T05:09:34;12.73;;;8.85;;
55330;SDS011;58851;42.984;20.336;2022-11-20T05:12:00;13.05;;;8.93;;
55330;SDS011;58851;42.984;20.336;2022-11-20T05:14:25;8.90;;;6.93;;
55330;SDS011;58851;42.984;20.336;2022-11-20T05:16:51;12.55;;;6.72;;
55330;SDS011;58851;42.984;20.336;2022-11-20T05:19:17;11.57;;;7.25;;
55330;SDS011;58851;42.984;20.336;2022-11-20T05:21:43;10.00;;;6.32;;
55330;SDS011;58851;42.984;20.336;2022-11-20T05:24:09;11.75;;;6.85;;
55330;SDS011;58851;42.984;20.336;2022-11-20T05:26:34;9.52;;;7.47;;
55330;SDS011;58851;42.984;20.336;2022-11-20T05:29:00;11.90;;;8.50;;
55330;SDS011;58851;42.984;20.336;2022-11-20T05:31:26;12.82;;;9.73;;
55330;SDS011;58851;42.984;20.336;2022-11-20T05:33:52;16.75;;;11.65;;
55330;SDS011;58851;42.984;20.336;2022-11-20T05:36:18;15.98;;;11.93;;
55330;SDS011;58851;42.984;20.336;2022-11-20T05:38:44;15.02;;;12.43;;
55330;SDS011;58851;42.984;20.336;2022-11-20T05:41:11;17.00;;;13.27;;
55330;SDS011;58851;42.984;20.336;2022-11-20T05:43:39;21.75;;;16.70;;
55330;SDS011;58851;42.984;20.336;2022-11-20T05:46:07;20.15;;;15.73;;
55330;SDS011;58851;42.984;20.336;2022-11-20T05:48:35;33.00;;;22.30;;
55330;SDS011;58851;42.984;20.336;2022-11-20T05:51:03;28.15;;;19.55;;
55330;SDS011;58851;42.984;20.336;2022-11-20T05:53:31;27.55;;;20.77;;
55330;SDS011;58851;42.984;20.336;2022-11-20T05:55:58;35.13;;;26.48;;
55330;SDS011;58851;42.984;20.336;2022-11-20T05:58:26;36.22;;;28.88;;
55330;SDS011;58851;42.984;20.336;2022-11-20T06:00:52;19.45;;;14.00;;
55330;SDS011;58851;42.984;20.336;2022-11-20T06:03:17;15.38;;;10.68;;
55330;SDS011;58851;42.984;20.336;2022-11-20T06:05:43;23.00;;;15.98;;
55330;SDS011;58851;42.984;20.336;2022-11-20T06:08:09;36.38;;;24.67;;
55330;SDS011;58851;42.984;20.336;2022-11-20T06:10:35;30.15;;;23.13;;
55330;SDS011;58851;42.984;20.336;2022-11-20T06:13:01;29.23;;;21.58;;
55330;SDS011;58851;42.984;20.336;2022-11-20T06:15:26;27.35;;;19.98;;
55330;SDS011;58851;42.984;20.336;2022-11-20T06:17:53;30.90;;;21.45;;
55330;SDS011;58851;42.984;20.336;2022-11-20T06:20:19;24.73;;;18.65;;
55330;SDS011;58851;42.984;20.336;2022-11-20T06:22:46;27.30;;;17.17;;
55330;SDS011;58851;42.984;20.336;2022-11-20T06:25:11;22.73;;;18.00;;
55330;SDS011;58851;42.984;20.336;2022-11-20T06:27:38;27.77;;;18.25;;
55330;SDS011;58851;42.984;20.336;2022-11-20T06:30:04;22.63;;;14.73;;
55330;SDS011;58851;42.984;20.336;2022-11-20T06:32:30;21.65;;;15.52;;
55330;SDS011;58851;42.984;20.336;2022-11-20T06:34:56;23.05;;;16.85;;
55330;SDS011;58851;42.984;20.336;2022-11-20T06:37:22;26.52;;;21.55;;
55330;SDS011;58851;42.984;20.336;2022-11-20T06:39:48;32.35;;;25.30;;
55330;SDS011;58851;42.984;20.336;2022-11-20T06:42:13;28.27;;;22.42;;
55330;SDS011;58851;42.984;20.336;2022-11-20T06:44:39;26.98;;;22.42;;
55330;SDS011;58851;42.984;20.336;2022-11-20T06:47:05;27.05;;;20.55;;
55330;SDS011;58851;42.984;20.336;2022-11-20T06:49:31;31.75;;;23.13;;
55330;SDS011;58851;42.984;20.336;2022-11-20T06:51:57;23.98;;;20.13;;
55330;SDS011;58851;42.984;20.336;2022-11-20T06:54:22;25.35;;;20.35;;
55330;SDS011;58851;42.984;20.336;2022-11-20T06:56:48;38.50;;;21.08;;
55330;SDS011;58851;42.984;20.336;2022-11-20T06:59:14;93.28;;;49.92;;
55330;SDS011;58851;42.984;20.336;2022-11-20T07:01:40;60.13;;;36.70;;
55330;SDS011;58851;42.984;20.336;2022-11-20T07:04:06;43.10;;;32.85;;
55330;SDS011;58851;42.984;20.336;2022-11-20T07:06:32;49.30;;;36.42;;
55330;SDS011;58851;42.984;20.336;2022-11-20T07:08:58;60.10;;;44.53;;
55330;SDS011;58851;42.984;20.336;2022-11-20T07:11:23;95.18;;;65.30;;
55330;SDS011;58851;42.984;20.336;2022-11-20T07:13:49;77.55;;;54.38;;
55330;SDS011;58851;42.984;20.336;2022-11-20T07:16:16;115.20;;;83.70;;
55330;SDS011;58851;42.984;20.336;2022-11-20T07:18:42;68.63;;;46.25;;
55330;SDS011;58851;42.984;20.336;2022-11-20T07:21:08;67.57;;;51.00;;
55330;SDS011;58851;42.984;20.336;2022-11-20T07:23:35;45.88;;;34.15;;
55330;SDS011;58851;42.984;20.336;2022-11-20T07:26:05;215.85;;;138.52;;
55330;SDS011;58851;42.984;20.336;2022-11-20T07:28:32;82.30;;;59.55;;
55330;SDS011;58851;42.984;20.336;2022-11-20T07:30:58;159.15;;;95.25;;
55330;SDS011;58851;42.984;20.336;2022-11-20T07:33:24;124.05;;;81.80;;
55330;SDS011;58851;42.984;20.336;2022-11-20T07:35:50;126.45;;;81.38;;
55330;SDS011;58851;42.984;20.336;2022-11-20T07:38:16;86.60;;;60.70;;
55330;SDS011;58851;42.984;20.336;2022-11-20T07:40:42;119.90;;;87.25;;
55330;SDS011;58851;42.984;20.336;2022-11-20T07:43:08;127.15;;;102.95;;
55330;SDS011;58851;42.984;20.336;2022-11-20T07:45:34;125.13;;;97.07;;
55330;SDS011;58851;42.984;20.336;2022-11-20T07:48:00;98.63;;;77.70;;
55330;SDS011;58851;42.984;20.336;2022-11-20T07:50:25;32.97;;;26.17;;
55330;SDS011;58851;42.984;20.336;2022-11-20T07:52:51;27.50;;;22.30;;
55330;SDS011;58851;42.984;20.336;2022-11-20T07:55:17;24.48;;;19.90;;
55330;SDS011;58851;42.984;20.336;2022-11-20T07:57:43;27.98;;;24.98;;
55330;SDS011;58851;42.984;20.336;2022-11-20T08:00:10;38.78;;;32.72;;
55330;SDS011;58851;42.984;20.336;2022-11-20T08:02:37;47.33;;;41.92;;
55330;SDS011;58851;42.984;20.336;2022-11-20T08:05:07;58.10;;;46.88;;
55330;SDS011;58851;42.984;20.336;2022-11-20T08:07:37;69.07;;;60.63;;
55330;SDS011;58851;42.984;20.336;2022-11-20T08:10:07;66.90;;;57.40;;
55330;SDS011;58851;42.984;20.336;2022-11-20T08:12:35;56.60;;;46.83;;
55330;SDS011;58851;42.984;20.336;2022-11-20T08:15:20;46.55;;;36.70;;
55330;SDS011;58851;42.984;20.336;2022-11-20T08:17:45;55.58;;;44.22;;
55330;SDS011;58851;42.984;20.336;2022-11-20T08:20:11;49.88;;;38.30;;
55330;SDS011;58851;42.984;20.336;2022-11-20T08:22:37;42.20;;;31.23;;
55330;SDS011;58851;42.984;20.336;2022-11-20T08:25:03;28.55;;;21.02;;
55330;SDS011;58851;42.984;20.336;2022-11-20T08:27:31;27.80;;;21.25;;
55330;SDS011;58851;42.984;20.336;2022-11-20T08:29:57;38.50;;;27.92;;
55330;SDS011;58851;42.984;20.336;2022-11-20T08:32:22;31.83;;;25.45;;
55330;SDS011;58851;42.984;20.336;2022-11-20T08:34:48;18.70;;;14.75;;
55330;SDS011;58851;42.984;20.336;2022-11-20T08:37:14;30.92;;;18.42;;
55330;SDS011;58851;42.984;20.336;2022-11-20T08:39:40;28.42;;;21.83;;
55330;SDS011;58851;42.984;20.336;2022-11-20T08:42:07;29.10;;;24.13;;
55330;SDS011;58851;42.984;20.336;2022-11-20T08:44:33;26.65;;;21.05;;
55330;SDS011;58851;42.984;20.336;2022-11-20T08:46:59;38.17;;;31.17;;
55330;SDS011;58851;42.984;20.336;2022-11-20T08:49:26;46.70;;;36.42;;
55330;SDS011;58851;42.984;20.336;2022-11-20T08:51:51;49.00;;;41.40;;
55330;SDS011;58851;42.984;20.336;2022-11-20T08:54:20;56.05;;;47.13;;
55330;SDS011;58851;42.984;20.336;2022-11-20T08:56:47;69.38;;;52.35;;
55330;SDS011;58851;42.984;20.336;2022-11-20T08:59:13;79.82;;;64.80;;
55330;SDS011;58851;42.984;20.336;2022-11-20T09:01:39;84.28;;;66.38;;
55330;SDS011;58851;42.984;20.336;2022-11-20T09:04:05;118.10;;;88.97;;
55330;SDS011;58851;42.984;20.336;2022-11-20T09:06:31;220.93;;;179.98;;
55330;SDS011;58851;42.984;20.336;2022-11-20T09:08:56;156.35;;;130.15;;
55330;SDS011;58851;42.984;20.336;2022-11-20T09:11:22;118.43;;;98.43;;
55330;SDS011;58851;42.984;20.336;2022-11-20T09:13:48;118.13;;;98.05;;
55330;SDS011;58851;42.984;20.336;2022-11-20T09:16:14;141.20;;;111.57;;
55330;SDS011;58851;42.984;20.336;2022-11-20T09:18:40;136.02;;;103.53;;
55330;SDS011;58851;42.984;20.336;2022-11-20T09:21:09;141.25;;;103.78;;
55330;SDS011;58851;42.984;20.336;2022-11-20T09:23:35;152.40;;;113.43;;
55330;SDS011;58851;42.984;20.336;2022-11-20T09:26:11;149.07;;;117.65;;
55330;SDS011;58851;42.984;20.336;2022-11-20T09:28:38;93.93;;;77.55;;
55330;SDS011;58851;42.984;20.336;2022-11-20T09:31:17;101.78;;;80.80;;
55330;SDS011;58851;42.984;20.336;2022-11-20T09:33:48;122.22;;;100.03;;
55330;SDS011;58851;42.984;20.336;2022-11-20T09:36:13;124.22;;;101.82;;
55330;SDS011;58851;42.984;20.336;2022-11-20T09:38:41;117.90;;;96.47;;
55330;SDS011;58851;42.984;20.336;2022-11-20T09:41:06;120.63;;;98.78;;
55330;SDS011;58851;42.984;20.336;2022-11-20T09:46:28;42.38;;;31.98;;
55330;SDS011;58851;42.984;20.336;2022-11-20T09:49:20;25.85;;;17.77;;
55330;SDS011;58851;42.984;20.336;2022-11-20T09:54:37;13.68;;;9.60;;
55330;SDS011;58851;42.984;20.336;2022-11-20T09:57:08;14.88;;;8.93;;
55330;SDS011;58851;42.984;20.336;2022-11-20T09:59:56;27.25;;;15.18;;
55330;SDS011;58851;42.984;20.336;2022-11-20T10:05:40;11.38;;;7.40;;
55330;SDS011;58851;42.984;20.336;2022-11-20T10:07:48;26.50;;;15.07;;
55330;SDS011;58851;42.984;20.336;2022-11-20T10:13:17;9.55;;;5.57;;
55330;SDS011;58851;42.984;20.336;2022-11-20T10:16:03;35.25;;;21.77;;
55330;SDS011;58851;42.984;20.336;2022-11-20T10:24:41;8.65;;;6.32;;
55330;SDS011;58851;42.984;20.336;2022-11-20T10:30:02;13.77;;;9.60;;
55330;SDS011;58851;42.984;20.336;2022-11-20T10:32:35;40.45;;;35.00;;
55330;SDS011;58851;42.984;20.336;2022-11-20T10:37:42;10.90;;;6.88;;
55330;SDS011;58851;42.984;20.336;2022-11-20T10:45:43;18.20;;;15.95;;
55330;SDS011;58851;42.984;20.336;2022-11-20T10:48:29;20.15;;;16.75;;
55330;SDS011;58851;42.984;20.336;2022-11-20T10:50:59;27.15;;;19.90;;
55330;SDS011;58851;42.984;20.336;2022-11-20T10:54:01;12.65;;;10.00;;
55330;SDS011;58851;42.984;20.336;2022-11-20T10:56:51;13.90;;;10.77;;
55330;SDS011;58851;42.984;20.336;2022-11-20T11:02:18;27.38;;;21.20;;
55330;SDS011;58851;42.984;20.336;2022-11-20T11:04:50;30.17;;;24.63;;
55330;SDS011;58851;42.984;20.336;2022-11-20T11:09:50;57.33;;;48.80;;
55330;SDS011;58851;42.984;20.336;2022-11-20T11:12:27;47.15;;;37.30;;
55330;SDS011;58851;42.984;20.336;2022-11-20T11:14:54;102.88;;;77.40;;
55330;SDS011;58851;42.984;20.336;2022-11-20T11:20:03;111.47;;;87.72;;
55330;SDS011;58851;42.984;20.336;2022-11-20T11:22:33;111.90;;;85.90;;
55330;SDS011;58851;42.984;20.336;2022-11-20T11:25:09;102.90;;;81.47;;
55330;SDS011;58851;42.984;20.336;2022-11-20T11:27:46;77.10;;;59.58;;
55330;SDS011;58851;42.984;20.336;2022-11-20T11:30:14;87.78;;;68.72;;
55330;SDS011;58851;42.984;20.336;2022-11-20T11:32:41;75.20;;;52.30;;
55330;SDS011;58851;42.984;20.336;2022-11-20T11:35:18;78.45;;;53.92;;
55330;SDS011;58851;42.984;20.336;2022-11-20T11:37:44;83.97;;;65.70;;
55330;SDS011;58851;42.984;20.336;2022-11-20T11:40:12;93.75;;;70.50;;
55330;SDS011;58851;42.984;20.336;2022-11-20T11:42:43;95.65;;;76.43;;
55330;SDS011;58851;42.984;20.336;2022-11-20T11:45:13;98.25;;;80.43;;
55330;SDS011;58851;42.984;20.336;2022-11-20T11:55:36;310.40;;;176.60;;
55330;SDS011;58851;42.984;20.336;2022-11-20T11:58:32;282.73;;;155.75;;
55330;SDS011;58851;42.984;20.336;2022-11-20T12:06:27;87.90;;;59.15;;
55330;SDS011;58851;42.984;20.336;2022-11-20T12:09:02;67.60;;;48.85;;
55330;SDS011;58851;42.984;20.336;2022-11-20T12:16:42;75.05;;;54.85;;
55330;SDS011;58851;42.984;20.336;2022-11-20T12:19:12;68.90;;;52.80;;
55330;SDS011;58851;42.984;20.336;2022-11-20T12:24:31;30.77;;;19.88;;
55330;SDS011;58851;42.984;20.336;2022-11-20T12:30:26;35.47;;;27.80;;
55330;SDS011;58851;42.984;20.336;2022-11-20T12:33:08;40.80;;;31.13;;
55330;SDS011;58851;42.984;20.336;2022-11-20T12:35:52;70.18;;;49.50;;
55330;SDS011;58851;42.984;20.336;2022-11-20T12:44:40;34.25;;;24.05;;
55330;SDS011;58851;42.984;20.336;2022-11-20T12:50:22;48.28;;;37.50;;
55330;SDS011;58851;42.984;20.336;2022-11-20T12:52:57;43.35;;;32.40;;
55330;SDS011;58851;42.984;20.336;2022-11-20T12:55:49;63.10;;;49.35;;
55330;SDS011;58851;42.984;20.336;2022-11-20T13:07:02;75.00;;;58.80;;
55330;SDS011;58851;42.984;20.336;2022-11-20T13:09:30;77.70;;;59.50;;
55330;SDS011;58851;42.984;20.336;2022-11-20T13:12:06;86.07;;;63.72;;
55330;SDS011;58851;42.984;20.336;2022-11-20T13:14:40;46.67;;;32.88;;
55330;SDS011;58851;42.984;20.336;2022-11-20T13:19:58;37.25;;;25.85;;
55330;SDS011;58851;42.984;20.336;2022-11-20T13:22:25;90.93;;;68.82;;
55330;SDS011;58851;42.984;20.336;2022-11-20T13:24:52;94.88;;;74.10;;
55330;SDS011;58851;42.984;20.336;2022-11-20T13:27:19;53.00;;;39.75;;
55330;SDS011;58851;42.984;20.336;2022-11-20T13:35:23;109.25;;;85.07;;
55330;SDS011;58851;42.984;20.336;2022-11-20T13:38:13;114.57;;;85.65;;
55330;SDS011;58851;42.984;20.336;2022-11-20T13:40:59;116.75;;;91.07;;
55330;SDS011;58851;42.984;20.336;2022-11-20T13:43:46;107.15;;;83.80;;
55330;SDS011;58851;42.984;20.336;2022-11-20T13:46:12;70.05;;;54.42;;
55330;SDS011;58851;42.984;20.336;2022-11-20T13:56:47;123.07;;;96.90;;
55330;SDS011;58851;42.984;20.336;2022-11-20T14:02:27;146.38;;;119.90;;
55330;SDS011;58851;42.984;20.336;2022-11-20T14:04:57;160.85;;;130.52;;
55330;SDS011;58851;42.984;20.336;2022-11-20T14:07:43;127.00;;;97.55;;
55330;SDS011;58851;42.984;20.336;2022-11-20T14:10:18;100.00;;;72.80;;
55330;SDS011;58851;42.984;20.336;2022-11-20T14:13:12;99.28;;;72.30;;
55330;SDS011;58851;42.984;20.336;2022-11-20T14:15:44;252.35;;;162.00;;
55330;SDS011;58851;42.984;20.336;2022-11-20T14:18:14;162.07;;;117.28;;
55330;SDS011;58851;42.984;20.336;2022-11-20T14:20:44;203.27;;;146.75;;
55330;SDS011;58851;42.984;20.336;2022-11-20T14:23:11;105.97;;;77.82;;
55330;SDS011;58851;42.984;20.336;2022-11-20T14:25:41;83.28;;;62.25;;
55330;SDS011;58851;42.984;20.336;2022-11-20T14:28:10;90.30;;;71.57;;
55330;SDS011;58851;42.984;20.336;2022-11-20T14:33:12;129.32;;;95.35;;
55330;SDS011;58851;42.984;20.336;2022-11-20T14:35:47;102.63;;;75.75;;
55330;SDS011;58851;42.984;20.336;2022-11-20T14:38:16;167.98;;;120.65;;
55330;SDS011;58851;42.984;20.336;2022-11-20T14:40:44;186.45;;;139.25;;
55330;SDS011;58851;42.984;20.336;2022-11-20T14:43:24;190.45;;;145.82;;
55330;SDS011;58851;42.984;20.336;2022-11-20T14:48:23;190.77;;;151.98;;
55330;SDS011;58851;42.984;20.336;2022-11-20T14:51:12;176.13;;;140.68;;
55330;SDS011;58851;42.984;20.336;2022-11-20T14:53:54;218.80;;;169.63;;
55330;SDS011;58851;42.984;20.336;2022-11-20T14:56:21;302.33;;;226.65;;
55330;SDS011;58851;42.984;20.336;2022-11-20T14:58:55;240.60;;;184.98;;
55330;SDS011;58851;42.984;20.336;2022-11-20T15:01:27;227.45;;;179.70;;
55330;SDS011;58851;42.984;20.336;2022-11-20T15:04:05;193.55;;;141.77;;
55330;SDS011;58851;42.984;20.336;2022-11-20T15:06:34;198.57;;;150.88;;
55330;SDS011;58851;42.984;20.336;2022-11-20T15:09:02;181.45;;;144.10;;
55330;SDS011;58851;42.984;20.336;2022-11-20T15:11:31;207.80;;;161.93;;
55330;SDS011;58851;42.984;20.336;2022-11-20T15:14:02;208.60;;;165.00;;
55330;SDS011;58851;42.984;20.336;2022-11-20T15:16:30;191.70;;;146.75;;
55330;SDS011;58851;42.984;20.336;2022-11-20T15:18:57;183.38;;;143.35;;
55330;SDS011;58851;42.984;20.336;2022-11-20T15:21:23;190.05;;;150.52;;
55330;SDS011;58851;42.984;20.336;2022-11-20T15:23:49;274.45;;;188.10;;
55330;SDS011;58851;42.984;20.336;2022-11-20T15:26:23;260.25;;;177.48;;
55330;SDS011;58851;42.984;20.336;2022-11-20T15:28:51;221.32;;;152.38;;
55330;SDS011;58851;42.984;20.336;2022-11-20T15:31:19;200.52;;;140.77;;
55330;SDS011;58851;42.984;20.336;2022-11-20T15:33:46;158.55;;;111.88;;
55330;SDS011;58851;42.984;20.336;2022-11-20T15:36:12;118.63;;;86.60;;
55330;SDS011;58851;42.984;20.336;2022-11-20T15:38:39;166.65;;;125.18;;
55330;SDS011;58851;42.984;20.336;2022-11-20T15:41:04;215.80;;;156.55;;
55330;SDS011;58851;42.984;20.336;2022-11-20T15:43:31;201.20;;;148.50;;
55330;SDS011;58851;42.984;20.336;2022-11-20T15:45:59;185.95;;;139.82;;
55330;SDS011;58851;42.984;20.336;2022-11-20T15:48:31;175.57;;;131.43;;
55330;SDS011;58851;42.984;20.336;2022-11-20T15:53:54;163.40;;;122.97;;
55330;SDS011;58851;42.984;20.336;2022-11-20T15:56:21;154.82;;;114.47;;
55330;SDS011;58851;42.984;20.336;2022-11-20T15:58:46;177.95;;;133.05;;
55330;SDS011;58851;42.984;20.336;2022-11-20T16:01:17;171.48;;;132.95;;
55330;SDS011;58851;42.984;20.336;2022-11-20T16:03:46;330.98;;;229.32;;
55330;SDS011;58851;42.984;20.336;2022-11-20T16:06:12;223.40;;;164.13;;
55330;SDS011;58851;42.984;20.336;2022-11-20T16:08:38;221.07;;;162.50;;
55330;SDS011;58851;42.984;20.336;2022-11-20T16:11:04;179.18;;;141.68;;
55330;SDS011;58851;42.984;20.336;2022-11-20T16:13:30;176.05;;;135.75;;
55330;SDS011;58851;42.984;20.336;2022-11-20T16:16:25;196.88;;;149.80;;